Etusivu
METAR-TAF:

METAR-TAF

Lentoasemat :

Rarotongan kansainvälinen lentoasema

Rarotonga, Cookinsaaret

Leveyspiiri: 21-12S, Pituuspiiri: 159-49W, korkeus merenpinnasta: 7 m

Tämänhetkinen sää

Tämä raportti tehtiin 23 minuuttia sitten, kello 10.00 UTC
Tuuli 3 kn idästä, vaihdellen idän/koillisen ja kaakon välillä
Lämpötila 22°C
Kosteus 73%
Ilmanpaine 1013 hPa

METAR: NCRG 121000Z AUTO 10003KT 070V130 FEW030/// 22/17 Q1013

Aika: 00:23 (10:23 UTC)

Sääennuste

Tämä raportti tehtiin 5 tuntia ja 11 minuuttia sitten, kello 05.12 UTC
Ennuste voimassa 12. päivästä klo 06 UTC - 13. päivään klo 06 UTC
Tuuli 5 kn idästä/kaakosta
Näkyvyys 10 km tai enemmän
Muutamia pilviä 3000 ft:n korkeudessa
Hajanaisia pilviä 5000 ft:n korkeudessa

TAF: NCRG 120512Z 1206/1306 11005KT 9999 FEW030 SCT050

Säähavainnot ja -ennusteet yli 4000 lentoasemalta (METAR- ja TAF-raportit).

Käytössä olevat sääasemat on merkitty karttaan keltaisilla ja punaisilla pisteillä.

Aseta hiiri pisteen päälle nähdäksesi sääaseman nimen.

Klikkaa sitten nähdäksesi säähavainnot ja -ennusteet.

Kartan vaihtaminen: klikkaa mustalla rastilla varustettuja vihreitä pisteitä, niin voit zoomata sisään; viivalla varustettua vihreää pistettä, niin voit zoomata ulos tai vihreitä nuolia, niin pääset viereisille kartoille.


METAR-TAF: